sensor_id;sensor_type;location;lat;lon;timestamp;P1;durP1;ratioP1;P2;durP2;ratioP2
56760;SDS011;42633;44.494;11.356;2022-12-10T00:02:51;23.67;;;17.17;;
56760;SDS011;42633;44.494;11.356;2022-12-10T00:05:59;27.83;;;18.35;;
56760;SDS011;42633;44.494;11.356;2022-12-10T00:09:10;21.23;;;15.88;;
56760;SDS011;42633;44.494;11.356;2022-12-10T00:12:20;23.10;;;16.67;;
56760;SDS011;42633;44.494;11.356;2022-12-10T00:15:25;21.80;;;15.23;;
56760;SDS011;42633;44.494;11.356;2022-12-10T00:18:29;21.33;;;15.18;;
56760;SDS011;42633;44.494;11.356;2022-12-10T00:21:34;20.48;;;14.35;;
56760;SDS011;42633;44.494;11.356;2022-12-10T00:24:39;24.80;;;15.48;;
56760;SDS011;42633;44.494;11.356;2022-12-10T00:27:46;23.50;;;15.90;;
56760;SDS011;42633;44.494;11.356;2022-12-10T00:30:50;22.05;;;15.80;;
56760;SDS011;42633;44.494;11.356;2022-12-10T00:33:55;21.70;;;14.52;;
56760;SDS011;42633;44.494;11.356;2022-12-10T00:37:01;19.30;;;14.30;;
56760;SDS011;42633;44.494;11.356;2022-12-10T00:40:06;21.95;;;15.18;;
56760;SDS011;42633;44.494;11.356;2022-12-10T00:43:12;21.58;;;14.88;;
56760;SDS011;42633;44.494;11.356;2022-12-10T00:46:18;22.10;;;15.18;;
56760;SDS011;42633;44.494;11.356;2022-12-10T00:49:24;21.23;;;14.70;;
56760;SDS011;42633;44.494;11.356;2022-12-10T00:52:28;22.33;;;15.27;;
56760;SDS011;42633;44.494;11.356;2022-12-10T00:55:35;22.83;;;13.95;;
56760;SDS011;42633;44.494;11.356;2022-12-10T00:58:41;23.20;;;15.32;;
56760;SDS011;42633;44.494;11.356;2022-12-10T01:01:46;24.40;;;15.77;;
56760;SDS011;42633;44.494;11.356;2022-12-10T01:04:54;24.33;;;16.58;;
56760;SDS011;42633;44.494;11.356;2022-12-10T01:07:59;24.10;;;16.42;;
56760;SDS011;42633;44.494;11.356;2022-12-10T01:11:04;24.45;;;15.88;;
56760;SDS011;42633;44.494;11.356;2022-12-10T01:14:10;23.10;;;15.95;;
56760;SDS011;42633;44.494;11.356;2022-12-10T01:17:16;26.67;;;17.58;;
56760;SDS011;42633;44.494;11.356;2022-12-10T01:20:22;27.67;;;16.02;;
56760;SDS011;42633;44.494;11.356;2022-12-10T01:23:26;23.60;;;15.95;;
56760;SDS011;42633;44.494;11.356;2022-12-10T01:26:32;22.75;;;14.80;;
56760;SDS011;42633;44.494;11.356;2022-12-10T01:29:38;22.50;;;15.13;;
56760;SDS011;42633;44.494;11.356;2022-12-10T01:32:45;22.43;;;14.10;;
56760;SDS011;42633;44.494;11.356;2022-12-10T01:35:49;25.63;;;14.00;;
56760;SDS011;42633;44.494;11.356;2022-12-10T01:38:54;23.60;;;15.40;;
56760;SDS011;42633;44.494;11.356;2022-12-10T01:41:59;23.55;;;15.18;;
56760;SDS011;42633;44.494;11.356;2022-12-10T01:45:06;23.98;;;15.05;;
56760;SDS011;42633;44.494;11.356;2022-12-10T01:48:13;24.05;;;15.20;;
56760;SDS011;42633;44.494;11.356;2022-12-10T01:51:17;21.98;;;15.43;;
56760;SDS011;42633;44.494;11.356;2022-12-10T01:54:30;25.95;;;16.23;;
56760;SDS011;42633;44.494;11.356;2022-12-10T01:57:45;23.35;;;15.15;;
56760;SDS011;42633;44.494;11.356;2022-12-10T02:07:39;21.50;;;14.18;;
56760;SDS011;42633;44.494;11.356;2022-12-10T02:11:19;23.35;;;16.08;;
56760;SDS011;42633;44.494;11.356;2022-12-10T02:14:35;23.48;;;13.85;;
56760;SDS011;42633;44.494;11.356;2022-12-10T02:18:10;21.95;;;13.60;;
56760;SDS011;42633;44.494;11.356;2022-12-10T02:21:22;20.65;;;13.70;;
56760;SDS011;42633;44.494;11.356;2022-12-10T02:24:33;23.15;;;14.43;;
56760;SDS011;42633;44.494;11.356;2022-12-10T02:27:48;21.30;;;13.75;;
56760;SDS011;42633;44.494;11.356;2022-12-10T02:31:14;20.80;;;13.63;;
56760;SDS011;42633;44.494;11.356;2022-12-10T02:34:23;19.75;;;12.63;;
56760;SDS011;42633;44.494;11.356;2022-12-10T02:37:31;20.80;;;13.05;;
56760;SDS011;42633;44.494;11.356;2022-12-10T02:40:42;23.17;;;14.00;;
56760;SDS011;42633;44.494;11.356;2022-12-10T02:43:51;21.40;;;14.45;;
56760;SDS011;42633;44.494;11.356;2022-12-10T02:46:58;19.33;;;13.47;;
56760;SDS011;42633;44.494;11.356;2022-12-10T02:50:09;24.08;;;14.75;;
56760;SDS011;42633;44.494;11.356;2022-12-10T02:53:18;21.88;;;13.75;;
56760;SDS011;42633;44.494;11.356;2022-12-10T02:59:51;21.27;;;13.23;;
56760;SDS011;42633;44.494;11.356;2022-12-10T03:03:25;20.85;;;14.13;;
56760;SDS011;42633;44.494;11.356;2022-12-10T03:06:42;21.50;;;12.68;;
56760;SDS011;42633;44.494;11.356;2022-12-10T03:09:56;20.70;;;12.85;;
56760;SDS011;42633;44.494;11.356;2022-12-10T03:13:29;21.48;;;13.45;;
56760;SDS011;42633;44.494;11.356;2022-12-10T03:16:43;21.02;;;12.35;;
56760;SDS011;42633;44.494;11.356;2022-12-10T03:19:53;23.27;;;13.30;;
56760;SDS011;42633;44.494;11.356;2022-12-10T03:23:02;22.08;;;12.85;;
56760;SDS011;42633;44.494;11.356;2022-12-10T03:26:13;20.75;;;14.18;;
56760;SDS011;42633;44.494;11.356;2022-12-10T03:29:20;19.00;;;12.82;;
56760;SDS011;42633;44.494;11.356;2022-12-10T03:32:30;20.48;;;13.23;;
56760;SDS011;42633;44.494;11.356;2022-12-10T03:35:35;19.90;;;12.82;;
56760;SDS011;42633;44.494;11.356;2022-12-10T03:38:41;18.45;;;12.27;;
56760;SDS011;42633;44.494;11.356;2022-12-10T03:41:46;22.45;;;13.98;;
56760;SDS011;42633;44.494;11.356;2022-12-10T03:44:51;21.42;;;13.75;;
56760;SDS011;42633;44.494;11.356;2022-12-10T03:47:57;21.70;;;13.73;;
56760;SDS011;42633;44.494;11.356;2022-12-10T03:51:02;22.75;;;14.25;;
56760;SDS011;42633;44.494;11.356;2022-12-10T03:54:07;21.25;;;14.13;;
56760;SDS011;42633;44.494;11.356;2022-12-10T03:57:11;23.60;;;14.70;;
56760;SDS011;42633;44.494;11.356;2022-12-10T04:00:16;23.48;;;14.90;;
56760;SDS011;42633;44.494;11.356;2022-12-10T04:03:25;21.15;;;13.80;;
56760;SDS011;42633;44.494;11.356;2022-12-10T04:06:34;21.60;;;13.38;;
56760;SDS011;42633;44.494;11.356;2022-12-10T04:09:40;20.15;;;13.23;;
56760;SDS011;42633;44.494;11.356;2022-12-10T04:12:45;20.20;;;13.27;;
56760;SDS011;42633;44.494;11.356;2022-12-10T04:16:13;21.02;;;13.77;;
56760;SDS011;42633;44.494;11.356;2022-12-10T04:19:32;20.75;;;12.90;;
56760;SDS011;42633;44.494;11.356;2022-12-10T04:22:39;21.52;;;13.50;;
56760;SDS011;42633;44.494;11.356;2022-12-10T04:26:01;21.25;;;12.63;;
56760;SDS011;42633;44.494;11.356;2022-12-10T04:29:25;21.15;;;13.27;;
56760;SDS011;42633;44.494;11.356;2022-12-10T04:32:31;20.38;;;13.38;;
56760;SDS011;42633;44.494;11.356;2022-12-10T04:35:36;21.23;;;13.82;;
56760;SDS011;42633;44.494;11.356;2022-12-10T04:38:42;19.98;;;13.38;;
56760;SDS011;42633;44.494;11.356;2022-12-10T04:41:47;24.13;;;15.20;;
56760;SDS011;42633;44.494;11.356;2022-12-10T04:44:53;19.13;;;12.10;;
56760;SDS011;42633;44.494;11.356;2022-12-10T04:48:01;20.75;;;13.38;;
56760;SDS011;42633;44.494;11.356;2022-12-10T04:51:06;21.57;;;14.63;;
56760;SDS011;42633;44.494;11.356;2022-12-10T04:54:12;18.98;;;13.55;;
56760;SDS011;42633;44.494;11.356;2022-12-10T04:57:16;22.00;;;14.25;;
56760;SDS011;42633;44.494;11.356;2022-12-10T05:00:21;21.85;;;13.98;;
56760;SDS011;42633;44.494;11.356;2022-12-10T05:03:25;22.50;;;15.48;;
56760;SDS011;42633;44.494;11.356;2022-12-10T05:06:29;24.75;;;14.93;;
56760;SDS011;42633;44.494;11.356;2022-12-10T05:09:34;24.08;;;14.95;;
56760;SDS011;42633;44.494;11.356;2022-12-10T05:12:38;23.38;;;15.43;;
56760;SDS011;42633;44.494;11.356;2022-12-10T05:15:42;23.45;;;14.35;;
56760;SDS011;42633;44.494;11.356;2022-12-10T05:18:49;24.77;;;15.07;;
56760;SDS011;42633;44.494;11.356;2022-12-10T05:21:54;27.92;;;15.43;;
56760;SDS011;42633;44.494;11.356;2022-12-10T05:25:17;27.08;;;16.08;;
56760;SDS011;42633;44.494;11.356;2022-12-10T05:28:22;23.15;;;15.38;;
56760;SDS011;42633;44.494;11.356;2022-12-10T05:31:30;25.13;;;16.02;;
56760;SDS011;42633;44.494;11.356;2022-12-10T05:34:35;25.65;;;15.75;;
56760;SDS011;42633;44.494;11.356;2022-12-10T05:37:40;26.05;;;16.10;;
56760;SDS011;42633;44.494;11.356;2022-12-10T05:40:46;24.23;;;15.70;;
56760;SDS011;42633;44.494;11.356;2022-12-10T05:43:50;23.10;;;15.40;;
56760;SDS011;42633;44.494;11.356;2022-12-10T05:46:58;25.10;;;16.30;;
56760;SDS011;42633;44.494;11.356;2022-12-10T05:50:03;24.40;;;15.50;;
56760;SDS011;42633;44.494;11.356;2022-12-10T05:53:09;28.13;;;15.45;;
56760;SDS011;42633;44.494;11.356;2022-12-10T05:56:14;21.38;;;14.50;;
56760;SDS011;42633;44.494;11.356;2022-12-10T05:59:21;22.75;;;14.65;;
56760;SDS011;42633;44.494;11.356;2022-12-10T06:02:26;21.98;;;14.15;;
56760;SDS011;42633;44.494;11.356;2022-12-10T06:05:40;23.73;;;14.40;;
56760;SDS011;42633;44.494;11.356;2022-12-10T06:08:44;21.67;;;14.95;;
56760;SDS011;42633;44.494;11.356;2022-12-10T06:11:48;20.55;;;13.75;;
56760;SDS011;42633;44.494;11.356;2022-12-10T06:14:53;21.13;;;12.77;;
56760;SDS011;42633;44.494;11.356;2022-12-10T06:17:57;19.77;;;13.45;;
56760;SDS011;42633;44.494;11.356;2022-12-10T06:21:05;21.48;;;14.40;;
56760;SDS011;42633;44.494;11.356;2022-12-10T06:24:18;21.27;;;13.57;;
56760;SDS011;42633;44.494;11.356;2022-12-10T06:27:23;20.77;;;12.60;;
56760;SDS011;42633;44.494;11.356;2022-12-10T06:30:26;23.58;;;13.85;;
56760;SDS011;42633;44.494;11.356;2022-12-10T06:33:30;21.60;;;14.10;;
56760;SDS011;42633;44.494;11.356;2022-12-10T06:36:36;20.58;;;13.20;;
56760;SDS011;42633;44.494;11.356;2022-12-10T06:39:41;20.83;;;13.63;;
56760;SDS011;42633;44.494;11.356;2022-12-10T06:42:46;21.92;;;13.32;;
56760;SDS011;42633;44.494;11.356;2022-12-10T06:45:50;20.98;;;14.00;;
56760;SDS011;42633;44.494;11.356;2022-12-10T06:48:59;22.30;;;13.98;;
56760;SDS011;42633;44.494;11.356;2022-12-10T06:52:15;20.17;;;13.55;;
56760;SDS011;42633;44.494;11.356;2022-12-10T06:55:21;19.55;;;12.68;;
56760;SDS011;42633;44.494;11.356;2022-12-10T06:58:29;21.23;;;13.32;;
56760;SDS011;42633;44.494;11.356;2022-12-10T07:01:34;20.25;;;13.18;;
56760;SDS011;42633;44.494;11.356;2022-12-10T07:04:43;17.65;;;12.40;;
56760;SDS011;42633;44.494;11.356;2022-12-10T07:07:47;21.85;;;13.30;;
56760;SDS011;42633;44.494;11.356;2022-12-10T07:10:52;19.27;;;12.60;;
56760;SDS011;42633;44.494;11.356;2022-12-10T07:18:43;21.27;;;13.27;;
56760;SDS011;42633;44.494;11.356;2022-12-10T07:21:49;18.77;;;12.90;;
56760;SDS011;42633;44.494;11.356;2022-12-10T07:24:55;20.00;;;13.23;;
56760;SDS011;42633;44.494;11.356;2022-12-10T07:28:00;19.17;;;13.48;;
56760;SDS011;42633;44.494;11.356;2022-12-10T07:31:04;21.30;;;13.75;;
56760;SDS011;42633;44.494;11.356;2022-12-10T07:34:10;23.45;;;13.55;;
56760;SDS011;42633;44.494;11.356;2022-12-10T07:37:15;22.88;;;14.77;;
56760;SDS011;42633;44.494;11.356;2022-12-10T07:40:19;23.05;;;15.30;;
56760;SDS011;42633;44.494;11.356;2022-12-10T07:43:25;23.15;;;15.07;;
56760;SDS011;42633;44.494;11.356;2022-12-10T07:46:30;24.33;;;15.82;;
56760;SDS011;42633;44.494;11.356;2022-12-10T07:49:35;22.05;;;14.85;;
56760;SDS011;42633;44.494;11.356;2022-12-10T07:52:40;24.63;;;15.90;;
56760;SDS011;42633;44.494;11.356;2022-12-10T07:55:44;19.55;;;14.75;;
56760;SDS011;42633;44.494;11.356;2022-12-10T07:58:49;27.02;;;16.05;;
56760;SDS011;42633;44.494;11.356;2022-12-10T08:01:54;23.63;;;16.15;;
56760;SDS011;42633;44.494;11.356;2022-12-10T08:04:58;27.25;;;17.17;;
56760;SDS011;42633;44.494;11.356;2022-12-10T08:08:03;25.80;;;16.50;;
56760;SDS011;42633;44.494;11.356;2022-12-10T08:11:13;25.77;;;16.30;;
56760;SDS011;42633;44.494;11.356;2022-12-10T08:14:20;23.27;;;16.15;;
56760;SDS011;42633;44.494;11.356;2022-12-10T08:17:24;23.30;;;16.10;;
56760;SDS011;42633;44.494;11.356;2022-12-10T08:20:30;24.27;;;16.98;;
56760;SDS011;42633;44.494;11.356;2022-12-10T08:23:34;24.48;;;17.15;;
56760;SDS011;42633;44.494;11.356;2022-12-10T08:26:40;28.23;;;16.30;;
56760;SDS011;42633;44.494;11.356;2022-12-10T08:29:45;23.35;;;17.17;;
56760;SDS011;42633;44.494;11.356;2022-12-10T08:32:49;25.17;;;16.25;;
56760;SDS011;42633;44.494;11.356;2022-12-10T08:36:00;26.25;;;17.05;;
56760;SDS011;42633;44.494;11.356;2022-12-10T08:39:06;24.80;;;16.95;;
56760;SDS011;42633;44.494;11.356;2022-12-10T08:42:10;26.48;;;18.23;;
56760;SDS011;42633;44.494;11.356;2022-12-10T08:45:14;27.17;;;18.23;;
56760;SDS011;42633;44.494;11.356;2022-12-10T08:48:18;26.98;;;19.10;;
56760;SDS011;42633;44.494;11.356;2022-12-10T08:51:24;27.90;;;18.73;;
56760;SDS011;42633;44.494;11.356;2022-12-10T08:54:32;28.67;;;20.23;;
56760;SDS011;42633;44.494;11.356;2022-12-10T08:57:37;30.25;;;20.85;;
56760;SDS011;42633;44.494;11.356;2022-12-10T09:07:26;36.00;;;22.77;;
56760;SDS011;42633;44.494;11.356;2022-12-10T09:10:34;37.28;;;23.67;;
56760;SDS011;42633;44.494;11.356;2022-12-10T09:13:43;33.47;;;23.83;;
56760;SDS011;42633;44.494;11.356;2022-12-10T09:16:50;38.33;;;25.08;;
56760;SDS011;42633;44.494;11.356;2022-12-10T09:19:55;40.47;;;25.10;;
56760;SDS011;42633;44.494;11.356;2022-12-10T09:23:02;40.17;;;28.23;;
56760;SDS011;42633;44.494;11.356;2022-12-10T09:26:10;43.80;;;27.90;;
56760;SDS011;42633;44.494;11.356;2022-12-10T09:29:20;40.60;;;27.48;;
56760;SDS011;42633;44.494;11.356;2022-12-10T09:32:33;45.60;;;28.85;;
56760;SDS011;42633;44.494;11.356;2022-12-10T09:35:44;48.50;;;27.55;;
56760;SDS011;42633;44.494;11.356;2022-12-10T09:38:49;41.90;;;28.52;;
56760;SDS011;42633;44.494;11.356;2022-12-10T09:49:16;42.22;;;28.67;;
56760;SDS011;42633;44.494;11.356;2022-12-10T09:52:41;47.60;;;29.33;;
56760;SDS011;42633;44.494;11.356;2022-12-10T09:55:54;44.65;;;29.08;;
56760;SDS011;42633;44.494;11.356;2022-12-10T10:06:52;42.25;;;28.27;;
56760;SDS011;42633;44.494;11.356;2022-12-10T10:09:57;43.67;;;28.88;;
56760;SDS011;42633;44.494;11.356;2022-12-10T10:20:07;45.00;;;30.10;;
56760;SDS011;42633;44.494;11.356;2022-12-10T10:23:13;47.35;;;29.77;;
56760;SDS011;42633;44.494;11.356;2022-12-10T10:26:26;44.22;;;28.65;;
56760;SDS011;42633;44.494;11.356;2022-12-10T10:29:33;39.95;;;27.38;;
56760;SDS011;42633;44.494;11.356;2022-12-10T10:35:53;45.45;;;29.52;;
56760;SDS011;42633;44.494;11.356;2022-12-10T10:39:09;46.88;;;30.58;;
56760;SDS011;42633;44.494;11.356;2022-12-10T10:42:42;44.42;;;29.92;;
56760;SDS011;42633;44.494;11.356;2022-12-10T10:49:32;48.55;;;32.05;;
56760;SDS011;42633;44.494;11.356;2022-12-10T10:52:45;55.55;;;35.17;;
56760;SDS011;42633;44.494;11.356;2022-12-10T10:55:53;48.05;;;32.42;;
56760;SDS011;42633;44.494;11.356;2022-12-10T10:59:07;52.72;;;34.35;;
56760;SDS011;42633;44.494;11.356;2022-12-10T11:02:27;47.38;;;32.35;;
56760;SDS011;42633;44.494;11.356;2022-12-10T11:05:37;52.15;;;33.33;;
56760;SDS011;42633;44.494;11.356;2022-12-10T11:08:43;47.80;;;32.00;;
56760;SDS011;42633;44.494;11.356;2022-12-10T11:15:41;48.13;;;30.75;;
56760;SDS011;42633;44.494;11.356;2022-12-10T11:18:57;45.55;;;30.02;;
56760;SDS011;42633;44.494;11.356;2022-12-10T11:22:15;48.78;;;31.00;;
56760;SDS011;42633;44.494;11.356;2022-12-10T11:25:50;52.70;;;32.80;;
56760;SDS011;42633;44.494;11.356;2022-12-10T11:36:16;49.30;;;32.90;;
56760;SDS011;42633;44.494;11.356;2022-12-10T11:39:59;49.45;;;32.53;;
56760;SDS011;42633;44.494;11.356;2022-12-10T11:56:33;50.17;;;31.10;;
56760;SDS011;42633;44.494;11.356;2022-12-10T12:19:12;52.00;;;34.63;;
56760;SDS011;42633;44.494;11.356;2022-12-10T12:27:23;52.72;;;33.97;;
56760;SDS011;42633;44.494;11.356;2022-12-10T12:45:49;51.75;;;33.65;;
56760;SDS011;42633;44.494;11.356;2022-12-10T12:49:55;56.42;;;36.38;;
56760;SDS011;42633;44.494;11.356;2022-12-10T12:53:20;50.63;;;34.30;;
56760;SDS011;42633;44.494;11.356;2022-12-10T12:57:18;51.60;;;34.17;;
56760;SDS011;42633;44.494;11.356;2022-12-10T13:01:05;50.42;;;34.00;;
56760;SDS011;42633;44.494;11.356;2022-12-10T13:04:31;50.78;;;33.33;;
56760;SDS011;42633;44.494;11.356;2022-12-10T13:11:34;54.80;;;33.33;;
56760;SDS011;42633;44.494;11.356;2022-12-10T13:29:12;50.15;;;32.63;;
56760;SDS011;42633;44.494;11.356;2022-12-10T13:38:04;43.90;;;29.45;;
56760;SDS011;42633;44.494;11.356;2022-12-10T13:41:23;48.58;;;31.05;;
56760;SDS011;42633;44.494;11.356;2022-12-10T13:44:49;45.42;;;28.63;;
56760;SDS011;42633;44.494;11.356;2022-12-10T18:46:52;34.67;;;21.27;;
56760;SDS011;42633;44.494;11.356;2022-12-10T18:50:46;31.35;;;20.25;;
56760;SDS011;42633;44.494;11.356;2022-12-10T18:54:55;35.22;;;21.73;;
56760;SDS011;42633;44.494;11.356;2022-12-10T18:58:37;32.22;;;21.25;;
56760;SDS011;42633;44.494;11.356;2022-12-10T19:01:46;34.05;;;20.70;;
56760;SDS011;42633;44.494;11.356;2022-12-10T19:08:42;39.53;;;23.90;;
56760;SDS011;42633;44.494;11.356;2022-12-10T19:16:42;37.33;;;22.42;;
56760;SDS011;42633;44.494;11.356;2022-12-10T19:19:57;33.15;;;21.23;;
56760;SDS011;42633;44.494;11.356;2022-12-10T19:23:12;35.30;;;23.42;;
56760;SDS011;42633;44.494;11.356;2022-12-10T19:30:13;35.17;;;22.48;;
56760;SDS011;42633;44.494;11.356;2022-12-10T19:33:30;36.35;;;22.42;;
56760;SDS011;42633;44.494;11.356;2022-12-10T19:37:00;29.85;;;20.20;;
56760;SDS011;42633;44.494;11.356;2022-12-10T19:40:22;32.92;;;20.08;;
56760;SDS011;42633;44.494;11.356;2022-12-10T19:47:21;35.55;;;20.80;;
56760;SDS011;42633;44.494;11.356;2022-12-10T19:50:33;40.00;;;21.63;;
56760;SDS011;42633;44.494;11.356;2022-12-10T19:54:03;32.33;;;20.50;;
56760;SDS011;42633;44.494;11.356;2022-12-10T20:01:01;32.47;;;21.00;;
56760;SDS011;42633;44.494;11.356;2022-12-10T20:04:16;34.58;;;21.15;;
56760;SDS011;42633;44.494;11.356;2022-12-10T20:12:57;28.40;;;18.33;;
56760;SDS011;42633;44.494;11.356;2022-12-10T20:16:29;36.78;;;21.02;;
56760;SDS011;42633;44.494;11.356;2022-12-10T20:19:42;30.17;;;20.83;;
56760;SDS011;42633;44.494;11.356;2022-12-10T20:23:06;31.58;;;19.27;;
56760;SDS011;42633;44.494;11.356;2022-12-10T20:26:18;47.30;;;22.02;;
56760;SDS011;42633;44.494;11.356;2022-12-10T20:29:38;37.03;;;22.70;;
56760;SDS011;42633;44.494;11.356;2022-12-10T20:32:57;33.78;;;20.98;;
56760;SDS011;42633;44.494;11.356;2022-12-10T20:36:05;34.75;;;21.23;;
56760;SDS011;42633;44.494;11.356;2022-12-10T20:42:24;34.13;;;22.25;;
56760;SDS011;42633;44.494;11.356;2022-12-10T20:45:32;36.38;;;23.15;;
56760;SDS011;42633;44.494;11.356;2022-12-10T20:48:40;40.20;;;26.20;;
56760;SDS011;42633;44.494;11.356;2022-12-10T20:51:57;41.97;;;25.65;;
56760;SDS011;42633;44.494;11.356;2022-12-10T20:55:03;38.90;;;25.95;;
56760;SDS011;42633;44.494;11.356;2022-12-10T21:01:43;38.63;;;26.58;;
56760;SDS011;42633;44.494;11.356;2022-12-10T21:04:56;40.80;;;27.55;;
56760;SDS011;42633;44.494;11.356;2022-12-10T21:08:03;39.90;;;26.80;;
56760;SDS011;42633;44.494;11.356;2022-12-10T21:11:16;43.80;;;27.35;;
56760;SDS011;42633;44.494;11.356;2022-12-10T21:14:26;34.88;;;24.00;;
56760;SDS011;42633;44.494;11.356;2022-12-10T21:17:34;35.53;;;23.95;;
56760;SDS011;42633;44.494;11.356;2022-12-10T21:20:43;38.05;;;24.45;;
56760;SDS011;42633;44.494;11.356;2022-12-10T21:23:54;40.43;;;26.97;;
56760;SDS011;42633;44.494;11.356;2022-12-10T21:27:21;39.30;;;26.23;;
56760;SDS011;42633;44.494;11.356;2022-12-10T21:34:06;39.85;;;24.52;;
56760;SDS011;42633;44.494;11.356;2022-12-10T21:37:17;40.13;;;25.10;;
56760;SDS011;42633;44.494;11.356;2022-12-10T21:40:34;37.85;;;24.45;;
56760;SDS011;42633;44.494;11.356;2022-12-10T21:43:42;39.90;;;23.73;;
56760;SDS011;42633;44.494;11.356;2022-12-10T21:46:54;38.40;;;24.88;;
56760;SDS011;42633;44.494;11.356;2022-12-10T21:50:02;43.88;;;25.75;;
56760;SDS011;42633;44.494;11.356;2022-12-10T21:53:39;38.10;;;25.20;;
56760;SDS011;42633;44.494;11.356;2022-12-10T21:59:51;44.15;;;24.55;;
56760;SDS011;42633;44.494;11.356;2022-12-10T22:02:56;42.83;;;25.52;;
56760;SDS011;42633;44.494;11.356;2022-12-10T22:06:01;41.90;;;25.08;;
56760;SDS011;42633;44.494;11.356;2022-12-10T22:09:24;41.85;;;25.88;;
56760;SDS011;42633;44.494;11.356;2022-12-10T22:12:36;40.30;;;25.17;;
56760;SDS011;42633;44.494;11.356;2022-12-10T22:15:41;37.08;;;23.92;;
56760;SDS011;42633;44.494;11.356;2022-12-10T22:19:00;38.47;;;24.17;;
56760;SDS011;42633;44.494;11.356;2022-12-10T22:26:32;39.45;;;23.15;;
56760;SDS011;42633;44.494;11.356;2022-12-10T22:29:40;37.45;;;25.42;;
56760;SDS011;42633;44.494;11.356;2022-12-10T22:32:47;37.73;;;23.73;;
56760;SDS011;42633;44.494;11.356;2022-12-10T22:36:01;34.85;;;23.30;;
56760;SDS011;42633;44.494;11.356;2022-12-10T22:39:09;37.13;;;23.83;;
56760;SDS011;42633;44.494;11.356;2022-12-10T22:42:15;38.97;;;25.13;;
56760;SDS011;42633;44.494;11.356;2022-12-10T22:45:19;39.65;;;26.02;;
56760;SDS011;42633;44.494;11.356;2022-12-10T22:48:24;40.90;;;25.52;;
56760;SDS011;42633;44.494;11.356;2022-12-10T22:51:31;40.47;;;25.60;;
56760;SDS011;42633;44.494;11.356;2022-12-10T22:54:37;40.00;;;26.35;;
56760;SDS011;42633;44.494;11.356;2022-12-10T22:57:42;40.30;;;25.60;;
56760;SDS011;42633;44.494;11.356;2022-12-10T23:00:47;40.30;;;26.65;;
56760;SDS011;42633;44.494;11.356;2022-12-10T23:03:52;40.20;;;27.02;;
56760;SDS011;42633;44.494;11.356;2022-12-10T23:06:59;43.42;;;27.60;;
56760;SDS011;42633;44.494;11.356;2022-12-10T23:10:05;42.83;;;27.42;;
56760;SDS011;42633;44.494;11.356;2022-12-10T23:13:11;43.72;;;28.75;;
56760;SDS011;42633;44.494;11.356;2022-12-10T23:16:19;40.53;;;26.55;;
56760;SDS011;42633;44.494;11.356;2022-12-10T23:19:25;40.88;;;26.58;;
56760;SDS011;42633;44.494;11.356;2022-12-10T23:22:31;48.90;;;29.27;;
56760;SDS011;42633;44.494;11.356;2022-12-10T23:25:38;42.38;;;27.70;;
56760;SDS011;42633;44.494;11.356;2022-12-10T23:28:44;47.03;;;29.48;;
56760;SDS011;42633;44.494;11.356;2022-12-10T23:31:55;46.45;;;29.20;;
56760;SDS011;42633;44.494;11.356;2022-12-10T23:34:59;46.63;;;30.38;;
56760;SDS011;42633;44.494;11.356;2022-12-10T23:38:05;45.30;;;29.95;;
56760;SDS011;42633;44.494;11.356;2022-12-10T23:41:11;45.55;;;29.88;;
56760;SDS011;42633;44.494;11.356;2022-12-10T23:44:17;45.90;;;29.92;;
56760;SDS011;42633;44.494;11.356;2022-12-10T23:47:22;47.85;;;31.83;;
56760;SDS011;42633;44.494;11.356;2022-12-10T23:50:27;48.33;;;31.60;;
56760;SDS011;42633;44.494;11.356;2022-12-10T23:53:35;46.63;;;29.17;;
56760;SDS011;42633;44.494;11.356;2022-12-10T23:56:42;49.28;;;30.65;;
56760;SDS011;42633;44.494;11.356;2022-12-10T23:59:50;46.70;;;29.33;;
